createdAt,value
2019-06-20T00:02:15.860Z,3.40
2019-06-20T00:04:43.338Z,3.30
2019-06-20T00:07:10.768Z,3.53
2019-06-20T00:09:38.224Z,3.70
2019-06-20T00:12:05.664Z,3.53
2019-06-20T00:14:33.145Z,3.77
2019-06-20T00:17:00.605Z,3.40
2019-06-20T00:19:28.029Z,3.53
2019-06-20T00:21:55.487Z,3.90
2019-06-20T00:24:22.918Z,3.90
2019-06-20T00:26:51.326Z,4.00
2019-06-20T00:29:18.832Z,3.87
2019-06-20T00:31:46.279Z,4.20
2019-06-20T00:34:13.746Z,4.17
2019-06-20T00:36:41.204Z,4.07
2019-06-20T00:39:08.690Z,4.33
2019-06-20T00:41:37.061Z,3.97
2019-06-20T00:44:04.511Z,3.97
2019-06-20T00:46:32.303Z,3.90
2019-06-20T00:48:59.757Z,3.97
2019-06-20T00:51:27.206Z,4.10
2019-06-20T00:53:54.662Z,3.70
2019-06-20T00:56:22.125Z,3.73
2019-06-20T00:58:49.579Z,3.80
2019-06-20T01:01:17.047Z,3.78
2019-06-20T01:03:44.509Z,3.78
2019-06-20T01:06:11.950Z,3.47
2019-06-20T01:08:39.388Z,3.60
2019-06-20T01:11:06.839Z,4.03
2019-06-20T01:13:34.620Z,4.03
2019-06-20T01:16:02.858Z,4.03
2019-06-20T01:18:30.340Z,3.80
2019-06-20T01:20:57.948Z,3.50
2019-06-20T01:23:25.326Z,3.65
2019-06-20T01:25:52.752Z,3.63
2019-06-20T01:28:20.206Z,3.80
2019-06-20T01:30:47.654Z,3.60
2019-06-20T01:33:15.147Z,3.90
2019-06-20T01:35:42.587Z,4.07
2019-06-20T01:38:10.025Z,3.67
2019-06-20T01:40:37.486Z,4.23
2019-06-20T01:43:04.998Z,3.87
2019-06-20T01:45:33.452Z,4.15
2019-06-20T01:48:00.895Z,4.40
2019-06-20T01:50:28.365Z,4.47
2019-06-20T01:52:55.811Z,3.57
2019-06-20T01:55:23.264Z,4.12
2019-06-20T01:57:50.694Z,4.23
2019-06-20T02:00:43.567Z,4.03
2019-06-20T02:03:10.986Z,4.55
2019-06-20T02:05:38.481Z,4.50
2019-06-20T02:08:05.942Z,5.43
2019-06-20T02:10:34.002Z,4.80
2019-06-20T02:13:01.436Z,4.50
2019-06-20T02:15:28.905Z,5.10
2019-06-20T02:17:56.366Z,5.00
2019-06-20T02:20:28.523Z,5.33
2019-06-20T02:22:55.970Z,5.50
2019-06-20T02:25:23.431Z,6.00
2019-06-20T02:27:50.887Z,5.45
2019-06-20T02:30:18.344Z,6.30
2019-06-20T02:32:45.792Z,6.17
2019-06-20T02:35:13.370Z,6.50
2019-06-20T02:37:40.824Z,5.90
2019-06-20T02:40:08.302Z,6.10
2019-06-20T02:42:35.777Z,6.17
2019-06-20T02:45:03.242Z,5.60
2019-06-20T02:47:30.715Z,5.37
2019-06-20T02:49:58.180Z,6.10
2019-06-20T02:52:25.639Z,6.30
2019-06-20T02:54:53.070Z,6.60
2019-06-20T02:57:20.531Z,6.20
2019-06-20T02:59:47.943Z,7.10
2019-06-20T03:02:15.380Z,7.10
2019-06-20T03:04:45.657Z,7.50
2019-06-20T03:07:10.277Z,7.50
2019-06-20T03:09:37.746Z,8.23
2019-06-20T03:12:05.228Z,8.60
2019-06-20T03:14:45.052Z,8.70
2019-06-20T03:17:00.128Z,8.80
2019-06-20T03:19:27.591Z,9.20
2019-06-20T03:21:55.028Z,9.40
2019-06-20T03:24:22.483Z,9.87
2019-06-20T03:26:49.969Z,11.87
2019-06-20T03:29:17.406Z,10.30
2019-06-20T03:31:44.871Z,12.17
2019-06-20T03:34:12.335Z,10.70
2019-06-20T03:36:39.859Z,11.57
2019-06-20T03:39:07.322Z,10.20
2019-06-20T03:41:34.813Z,11.70
2019-06-20T03:44:02.822Z,13.03
2019-06-20T03:46:30.280Z,12.20
2019-06-20T03:48:57.771Z,14.47
2019-06-20T03:51:25.234Z,12.70
2019-06-20T03:53:52.696Z,13.98
2019-06-20T03:56:21.004Z,13.73
2019-06-20T03:58:48.458Z,13.60
2019-06-20T04:01:15.938Z,14.23
2019-06-20T04:03:43.380Z,14.80
2019-06-20T04:06:10.840Z,14.60
2019-06-20T04:08:38.272Z,14.13
2019-06-20T04:11:06.385Z,14.27
2019-06-20T04:13:33.840Z,14.37
2019-06-20T04:16:01.309Z,14.80
2019-06-20T04:18:28.767Z,14.70
2019-06-20T04:20:56.234Z,14.33
2019-06-20T04:23:23.722Z,15.30
2019-06-20T04:25:51.156Z,15.70
2019-06-20T04:28:18.611Z,16.33
2019-06-20T04:30:46.038Z,17.37
2019-06-20T04:33:13.527Z,16.67
2019-06-20T04:35:40.968Z,17.57
2019-06-20T04:38:08.467Z,17.67
2019-06-20T04:40:35.915Z,17.57
2019-06-20T04:43:03.387Z,17.00
2019-06-20T04:45:35.397Z,16.50
2019-06-20T04:48:01.322Z,17.17
2019-06-20T04:50:28.815Z,16.13
2019-06-20T04:52:56.268Z,16.27
2019-06-20T04:55:23.721Z,16.63
2019-06-20T04:57:51.199Z,16.37
2019-06-20T05:00:19.606Z,17.73
2019-06-20T05:02:47.412Z,16.20
2019-06-20T05:05:15.229Z,17.33
2019-06-20T05:07:42.709Z,15.90
2019-06-20T05:10:10.181Z,15.50
2019-06-20T05:12:37.678Z,18.07
2019-06-20T05:15:05.152Z,19.40
2019-06-20T05:17:32.607Z,17.70
2019-06-20T05:20:00.057Z,19.43
2019-06-20T05:22:28.300Z,19.23
2019-06-20T05:24:55.815Z,19.15
2019-06-20T05:27:23.298Z,18.90
2019-06-20T05:29:50.779Z,19.12
2019-06-20T05:32:18.204Z,20.27
2019-06-20T05:34:45.654Z,21.53
2019-06-20T05:37:13.462Z,22.60
2019-06-20T05:39:40.915Z,21.90
2019-06-20T05:42:08.494Z,22.53
2019-06-20T05:44:36.100Z,21.60
2019-06-20T05:47:12.448Z,23.33
2019-06-20T05:49:31.060Z,22.85
2019-06-20T05:51:59.391Z,23.93
2019-06-20T05:54:26.023Z,22.97
2019-06-20T05:56:53.511Z,23.67
2019-06-20T05:59:20.949Z,22.80
2019-06-20T06:01:48.440Z,24.20
2019-06-20T06:04:15.860Z,24.40
2019-06-20T06:06:43.319Z,24.57
2019-06-20T06:09:10.756Z,26.20
2019-06-20T06:11:39.228Z,23.85
2019-06-20T06:14:06.717Z,23.70
2019-06-20T06:16:34.148Z,23.33
2019-06-20T06:19:01.614Z,26.13
2019-06-20T06:21:29.147Z,25.07
2019-06-20T06:23:56.572Z,23.92
2019-06-20T06:26:24.082Z,23.53
2019-06-20T06:28:51.585Z,20.33
2019-06-20T06:31:19.016Z,22.02
2019-06-20T06:33:46.507Z,22.05
2019-06-20T06:36:13.975Z,21.23
2019-06-20T06:38:41.458Z,22.03
2019-06-20T06:41:09.734Z,22.62
2019-06-20T06:43:42.007Z,21.03
2019-06-20T06:46:04.699Z,21.00
2019-06-20T06:48:32.178Z,20.30
2019-06-20T06:51:00.887Z,21.50
2019-06-20T06:53:28.441Z,22.97
2019-06-20T06:55:55.936Z,20.33
2019-06-20T06:58:23.391Z,20.23
2019-06-20T07:00:50.909Z,20.97
2019-06-20T07:03:18.386Z,19.80
2019-06-20T07:05:45.888Z,19.50
2019-06-20T07:08:13.365Z,20.43
2019-06-20T07:10:40.850Z,19.40
2019-06-20T07:13:09.108Z,19.40
2019-06-20T07:15:36.814Z,19.40
2019-06-20T07:18:04.269Z,19.20
2019-06-20T07:20:31.779Z,19.70
2019-06-20T07:22:59.258Z,19.60
2019-06-20T07:25:26.708Z,18.67
2019-06-20T07:27:54.211Z,18.57
2019-06-20T07:30:21.657Z,19.50
2019-06-20T07:32:49.129Z,19.67
2019-06-20T07:35:17.686Z,19.35
2019-06-20T07:37:45.198Z,17.77
2019-06-20T07:40:12.646Z,18.80
2019-06-20T07:42:41.089Z,19.23
2019-06-20T07:45:08.552Z,17.87
2019-06-20T07:47:36.013Z,19.47
2019-06-20T07:50:03.483Z,18.87
2019-06-20T07:52:30.973Z,19.33
2019-06-20T07:54:58.453Z,21.20
2019-06-20T07:57:25.896Z,18.60
2019-06-20T07:59:53.378Z,18.90
2019-06-20T08:02:20.837Z,18.20
2019-06-20T08:04:48.313Z,16.03
2019-06-20T08:07:16.733Z,16.13
2019-06-20T08:09:45.401Z,14.50
2019-06-20T08:12:12.534Z,16.80
2019-06-20T08:14:40.030Z,15.70
2019-06-20T08:17:07.499Z,16.37
2019-06-20T08:19:34.959Z,14.20
2019-06-20T08:22:02.423Z,12.73
2019-06-20T08:24:29.890Z,12.03
2019-06-20T08:26:58.682Z,10.35
2019-06-20T08:29:24.870Z,10.85
2019-06-20T08:31:52.379Z,10.10
2019-06-20T08:34:19.854Z,10.50
2019-06-20T08:36:47.345Z,10.47
2019-06-20T08:39:14.806Z,10.37
2019-06-20T08:41:42.256Z,9.17
2019-06-20T08:44:09.753Z,8.47
2019-06-20T08:46:38.115Z,8.30
2019-06-20T08:49:05.842Z,8.27
2019-06-20T08:51:33.086Z,8.13
2019-06-20T08:54:01.187Z,8.05
2019-06-20T08:56:28.040Z,7.40
2019-06-20T08:58:57.016Z,7.90
2019-06-20T09:01:23.050Z,7.23
2019-06-20T09:03:50.509Z,7.13
2019-06-20T09:06:17.963Z,7.57
2019-06-20T09:08:45.428Z,8.60
2019-06-20T09:11:13.488Z,9.25
2019-06-20T09:13:40.945Z,8.83
2019-06-20T09:16:08.398Z,8.60
2019-06-20T09:18:35.864Z,8.05
2019-06-20T09:21:03.901Z,7.80
2019-06-20T09:23:31.363Z,8.10
2019-06-20T09:25:59.648Z,7.87
2019-06-20T09:28:26.287Z,8.07
2019-06-20T09:30:55.104Z,8.17
2019-06-20T09:33:21.268Z,8.23
2019-06-20T09:35:48.738Z,7.57
2019-06-20T09:38:16.200Z,8.67
2019-06-20T09:40:43.644Z,9.30
2019-06-20T09:43:26.538Z,8.60
2019-06-20T09:45:39.747Z,7.80
2019-06-20T09:48:07.234Z,6.60
2019-06-20T09:50:34.705Z,6.93
2019-06-20T09:53:02.173Z,6.90
2019-06-20T09:55:29.641Z,7.35
2019-06-20T09:57:58.184Z,6.83
2019-06-20T10:00:24.529Z,6.60
2019-06-20T10:02:53.919Z,5.27
2019-06-20T10:05:19.549Z,5.30
2019-06-20T10:07:48.567Z,5.10
2019-06-20T10:10:14.465Z,4.93
2019-06-20T10:12:41.954Z,4.10
2019-06-20T10:15:19.327Z,4.53
2019-06-20T10:17:47.388Z,4.80
2019-06-20T10:20:14.327Z,4.60
2019-06-20T10:22:41.773Z,4.27
2019-06-20T10:25:09.255Z,4.05
2019-06-20T10:27:37.233Z,4.00
2019-06-20T10:30:14.191Z,4.40
2019-06-20T10:32:32.988Z,3.60
2019-06-20T10:35:00.482Z,3.90
2019-06-20T10:37:27.954Z,5.72
2019-06-20T10:39:56.808Z,6.50
2019-06-20T10:42:22.922Z,6.20
2019-06-20T10:44:50.404Z,5.50
2019-06-20T10:47:31.704Z,6.87
2019-06-20T10:49:46.226Z,5.33
2019-06-20T10:52:12.874Z,5.77
2019-06-20T10:54:43.013Z,5.10
2019-06-20T10:57:09.240Z,5.80
2019-06-20T10:59:36.725Z,4.82
2019-06-20T11:02:07.177Z,4.37
2019-06-20T11:04:31.795Z,3.80
2019-06-20T11:06:59.288Z,4.40
2019-06-20T11:09:26.727Z,4.22
2019-06-20T11:11:54.204Z,5.50
2019-06-20T11:14:21.682Z,5.00
2019-06-20T11:16:50.127Z,4.43
2019-06-20T11:19:17.708Z,4.30
2019-06-20T11:21:45.727Z,4.20
2019-06-20T11:24:12.729Z,4.13
2019-06-20T11:26:41.105Z,4.73
2019-06-20T11:29:07.651Z,4.47
2019-06-20T11:31:35.102Z,4.77
2019-06-20T11:34:02.573Z,4.47
2019-06-20T11:36:30.018Z,3.67
2019-06-20T11:38:57.472Z,4.13
2019-06-20T11:41:24.926Z,4.40
2019-06-20T11:43:52.368Z,4.07
2019-06-20T11:46:20.045Z,4.30
2019-06-20T11:48:47.354Z,4.15
2019-06-20T11:51:14.815Z,4.90
2019-06-20T11:53:42.671Z,4.20
2019-06-20T11:56:09.744Z,3.97
2019-06-20T11:58:37.212Z,4.00
2019-06-20T12:01:04.662Z,4.37
2019-06-20T12:03:32.119Z,4.00
2019-06-20T12:05:59.599Z,4.43
2019-06-20T12:08:27.096Z,4.30
2019-06-20T12:10:54.558Z,4.37
2019-06-20T12:13:22.008Z,4.50
2019-06-20T12:15:49.486Z,4.63
2019-06-20T12:18:16.953Z,4.90
2019-06-20T12:20:44.545Z,4.70
2019-06-20T12:23:11.889Z,4.40
2019-06-20T12:25:40.900Z,4.25
2019-06-20T12:28:06.808Z,4.57
2019-06-20T12:30:34.297Z,4.70
2019-06-20T12:33:01.739Z,4.27
2019-06-20T12:35:29.211Z,4.43
2019-06-20T12:37:56.663Z,4.53
2019-06-20T12:40:24.101Z,4.10
2019-06-20T12:42:51.542Z,4.93
2019-06-20T12:45:19.018Z,4.37
2019-06-20T12:47:46.578Z,5.15
2019-06-20T12:50:14.011Z,4.80
2019-06-20T12:52:42.621Z,4.73
2019-06-20T12:55:08.933Z,4.33
2019-06-20T12:57:38.455Z,4.72
2019-06-20T13:00:06.712Z,5.13
2019-06-20T13:02:34.174Z,5.47
2019-06-20T13:05:01.608Z,4.30
2019-06-20T13:07:29.086Z,4.93
2019-06-20T13:09:56.600Z,4.80
2019-06-20T13:12:24.089Z,5.07
2019-06-20T13:14:51.511Z,6.33
2019-06-20T13:17:18.986Z,6.70
2019-06-20T13:19:46.571Z,6.90
2019-06-20T13:22:13.952Z,7.75
2019-06-20T13:24:42.723Z,8.47
2019-06-20T13:27:08.876Z,9.23
2019-06-20T13:29:36.336Z,8.00
2019-06-20T13:32:04.619Z,9.87
2019-06-20T13:34:31.315Z,10.23
2019-06-20T13:36:58.785Z,9.53
2019-06-20T13:39:26.268Z,8.82
2019-06-20T13:41:53.726Z,9.60
2019-06-20T13:44:21.780Z,10.07
2019-06-20T13:46:48.957Z,9.40
2019-06-20T13:49:16.156Z,9.52
2019-06-20T13:51:45.765Z,9.80
2019-06-20T13:54:12.170Z,10.50
2019-06-20T13:56:39.648Z,10.10
2019-06-20T13:59:10.069Z,10.48
2019-06-20T14:01:34.604Z,9.70
2019-06-20T14:04:02.070Z,10.90
2019-06-20T14:06:29.544Z,10.77
2019-06-20T14:08:57.006Z,10.53
2019-06-20T14:11:24.465Z,10.37
2019-06-20T14:13:53.051Z,9.70
2019-06-20T14:16:19.411Z,9.67
2019-06-20T14:18:46.856Z,10.10
2019-06-20T14:21:14.307Z,9.68
2019-06-20T14:23:42.891Z,10.02
2019-06-20T14:26:09.289Z,9.40
2019-06-20T14:28:36.754Z,10.75
2019-06-20T14:31:04.231Z,9.33
2019-06-20T14:33:31.982Z,9.87
2019-06-20T14:35:59.119Z,8.97
2019-06-20T14:38:26.604Z,9.47
2019-06-20T14:40:54.571Z,9.40
2019-06-20T14:43:21.535Z,8.87
2019-06-20T14:45:48.966Z,8.93
2019-06-20T14:48:17.307Z,9.07
2019-06-20T14:50:46.392Z,7.57
2019-06-20T14:53:12.250Z,7.47
2019-06-20T14:55:39.729Z,7.00
2019-06-20T14:58:07.155Z,7.00
2019-06-20T15:00:34.625Z,7.30
2019-06-20T15:03:02.066Z,7.20
2019-06-20T15:05:29.510Z,7.00
2019-06-20T15:07:57.162Z,6.40
2019-06-20T15:10:25.291Z,6.30
2019-06-20T15:12:53.798Z,6.95
2019-06-20T15:15:20.332Z,6.30
2019-06-20T15:17:50.364Z,6.37
2019-06-20T15:20:15.302Z,6.40
2019-06-20T15:22:42.839Z,6.90
2019-06-20T15:25:10.288Z,6.60
2019-06-20T15:27:37.735Z,5.97
2019-06-20T15:30:06.591Z,9.60
2019-06-20T15:32:34.039Z,6.40
2019-06-20T15:35:02.052Z,6.23
2019-06-20T15:37:29.439Z,5.93
2019-06-20T15:39:57.481Z,6.63
2019-06-20T15:42:24.390Z,7.07
2019-06-20T15:44:51.946Z,6.47
2019-06-20T15:47:19.395Z,6.07
2019-06-20T15:49:47.294Z,6.90
2019-06-20T15:52:14.744Z,6.13
2019-06-20T15:54:42.167Z,5.53
2019-06-20T15:57:09.637Z,5.70
2019-06-20T15:59:37.087Z,5.17
2019-06-20T16:02:04.540Z,5.20
2019-06-20T16:04:32.116Z,5.10
2019-06-20T16:06:59.636Z,5.17
2019-06-20T16:09:27.107Z,5.07
2019-06-20T16:11:54.565Z,4.57
2019-06-20T16:14:22.017Z,4.43
2019-06-20T16:16:49.460Z,4.07
2019-06-20T16:19:16.946Z,3.60
2019-06-20T16:21:44.429Z,3.67
2019-06-20T16:24:12.750Z,4.03
2019-06-20T16:26:39.693Z,3.70
2019-06-20T16:29:07.792Z,3.47
2019-06-20T16:31:35.277Z,3.90
2019-06-20T16:34:02.741Z,4.10
2019-06-20T16:36:30.210Z,3.45
2019-06-20T16:38:57.700Z,3.60
2019-06-20T16:41:25.143Z,3.40
2019-06-20T16:43:52.642Z,4.00
2019-06-20T16:46:20.116Z,3.50
2019-06-20T16:48:47.562Z,3.50
2019-06-20T16:51:15.018Z,3.53
2019-06-20T16:53:42.470Z,3.80
2019-06-20T16:56:09.937Z,4.30
2019-06-20T16:58:37.409Z,4.10
2019-06-20T17:01:04.836Z,4.10
2019-06-20T17:03:41.292Z,3.90
2019-06-20T17:05:59.759Z,4.23
2019-06-20T17:08:27.259Z,4.20
2019-06-20T17:10:54.729Z,3.80
2019-06-20T17:13:23.237Z,4.03
2019-06-20T17:15:50.719Z,3.93
2019-06-20T17:18:18.237Z,4.55
2019-06-20T17:20:45.700Z,4.25
2019-06-20T17:23:13.618Z,3.87
2019-06-20T17:25:41.059Z,3.90
2019-06-20T17:28:08.513Z,3.93
2019-06-20T17:30:35.960Z,4.03
2019-06-20T17:33:03.426Z,4.07
2019-06-20T17:35:31.875Z,4.20
2019-06-20T17:37:59.391Z,4.20
2019-06-20T17:40:26.857Z,3.33
2019-06-20T17:42:54.305Z,3.20
2019-06-20T17:45:21.790Z,3.33
2019-06-20T17:47:49.249Z,3.63
2019-06-20T17:50:16.701Z,3.40
2019-06-20T17:52:44.146Z,4.78
2019-06-20T17:55:11.608Z,4.87
2019-06-20T17:57:39.061Z,4.47
2019-06-20T18:00:09.208Z,5.10
2019-06-20T18:02:36.647Z,4.28
2019-06-20T18:05:04.111Z,3.50
2019-06-20T18:07:32.316Z,6.18
2019-06-20T18:09:59.782Z,6.30
2019-06-20T18:12:27.261Z,4.63
2019-06-20T18:14:54.703Z,2.83
2019-06-20T18:17:22.180Z,2.80
2019-06-20T18:19:54.610Z,3.45
2019-06-20T18:22:22.179Z,3.37
2019-06-20T18:24:49.668Z,18.90
2019-06-20T18:27:17.127Z,13.23
2019-06-20T18:29:44.615Z,2.85
2019-06-20T18:32:12.095Z,3.10
2019-06-20T18:34:39.538Z,2.90
2019-06-20T18:37:07.024Z,31.10
2019-06-20T18:39:34.485Z,2.80
2019-06-20T18:42:03.734Z,2.45
2019-06-20T18:44:31.146Z,2.63
2019-06-20T18:46:58.614Z,2.40
2019-06-20T18:49:26.105Z,2.30
2019-06-20T18:51:53.591Z,2.53
2019-06-20T18:54:21.284Z,2.13
2019-06-20T18:56:48.758Z,2.30
2019-06-20T18:59:16.194Z,2.50
2019-06-20T19:01:43.676Z,2.30
2019-06-20T19:04:11.127Z,2.00
2019-06-20T19:06:38.602Z,2.60
2019-06-20T19:09:07.244Z,2.50
2019-06-20T19:11:34.250Z,2.13
2019-06-20T19:14:02.427Z,2.40
2019-06-20T19:16:29.882Z,2.27
2019-06-20T19:18:57.326Z,2.10
2019-06-20T19:21:25.688Z,2.17
2019-06-20T19:23:55.442Z,2.10
2019-06-20T19:26:20.717Z,2.40
2019-06-20T19:28:48.179Z,2.12
2019-06-20T19:31:15.619Z,2.70
2019-06-20T19:33:43.126Z,2.50
2019-06-20T19:36:10.607Z,2.20
2019-06-20T19:38:38.079Z,2.40
2019-06-20T19:41:05.514Z,2.50
2019-06-20T19:43:32.978Z,2.40
2019-06-20T19:46:00.434Z,2.40
2019-06-20T19:48:27.902Z,2.67
2019-06-20T19:50:55.357Z,2.40
2019-06-20T19:53:22.861Z,2.30
2019-06-20T19:55:50.351Z,2.40
2019-06-20T19:58:17.819Z,2.37
2019-06-20T20:00:45.295Z,2.50
2019-06-20T20:03:13.581Z,2.80
2019-06-20T20:05:42.794Z,2.55
2019-06-20T20:08:10.370Z,2.83
2019-06-20T20:10:39.343Z,2.50
2019-06-20T20:13:06.834Z,2.50
2019-06-20T20:15:34.301Z,2.90
2019-06-20T20:18:02.604Z,2.47
2019-06-20T20:20:30.070Z,2.67
2019-06-20T20:22:57.567Z,2.40
2019-06-20T20:25:25.051Z,2.47
2019-06-20T20:27:53.397Z,2.62
2019-06-20T20:30:20.977Z,2.53
2019-06-20T20:32:48.440Z,3.40
2019-06-20T20:35:15.889Z,3.62
2019-06-20T20:37:43.363Z,3.57
2019-06-20T20:40:10.835Z,3.53
2019-06-20T20:42:38.295Z,3.58
2019-06-20T20:45:06.672Z,4.00
2019-06-20T20:47:34.121Z,4.13
2019-06-20T20:50:01.606Z,4.37
2019-06-20T20:52:29.097Z,4.57
2019-06-20T20:54:56.566Z,4.57
2019-06-20T20:57:24.048Z,4.10
2019-06-20T20:59:51.512Z,3.70
2019-06-20T21:02:18.970Z,3.77
2019-06-20T21:04:46.433Z,4.03
2019-06-20T21:07:13.935Z,3.77
2019-06-20T21:09:41.389Z,4.27
2019-06-20T21:12:08.873Z,4.23
2019-06-20T21:14:36.302Z,4.50
2019-06-20T21:17:04.701Z,4.63
2019-06-20T21:19:32.269Z,5.45
2019-06-20T21:21:59.723Z,5.87
2019-06-20T21:24:27.157Z,5.83
2019-06-20T21:26:54.630Z,5.77
2019-06-20T21:29:22.449Z,6.27
2019-06-20T21:31:49.904Z,6.00
2019-06-20T21:34:17.347Z,5.43
2019-06-20T21:36:44.803Z,5.80
2019-06-20T21:39:12.248Z,5.57
2019-06-20T21:41:39.749Z,5.45
2019-06-20T21:44:07.182Z,5.30
2019-06-20T21:46:34.628Z,5.57
2019-06-20T21:49:02.133Z,5.80
2019-06-20T21:51:29.601Z,8.80
2019-06-20T21:53:57.085Z,8.40
2019-06-20T21:56:24.575Z,8.07
2019-06-20T21:58:52.029Z,8.47
2019-06-20T22:01:19.508Z,7.75
2019-06-20T22:03:46.986Z,7.68
2019-06-20T22:06:23.184Z,7.87
2019-06-20T22:08:42.016Z,7.80
2019-06-20T22:11:09.452Z,7.25
2019-06-20T22:13:36.930Z,8.33
2019-06-20T22:16:04.806Z,8.13
2019-06-20T22:18:32.269Z,10.60
2019-06-20T22:20:59.784Z,10.07
2019-06-20T22:23:27.276Z,9.63
2019-06-20T22:25:54.747Z,10.45
2019-06-20T22:28:22.234Z,9.67
2019-06-20T22:30:50.279Z,9.33
2019-06-20T22:33:17.738Z,9.37
2019-06-20T22:35:46.085Z,9.23
2019-06-20T22:38:12.797Z,9.43
2019-06-20T22:40:40.272Z,11.00
2019-06-20T22:43:07.732Z,10.90
2019-06-20T22:45:35.382Z,10.60
2019-06-20T22:48:02.832Z,12.30
2019-06-20T22:50:30.324Z,11.77
2019-06-20T22:52:57.791Z,11.23
2019-06-20T22:55:25.284Z,11.47
2019-06-20T22:57:52.757Z,10.73
2019-06-20T23:00:21.192Z,10.57
2019-06-20T23:02:48.771Z,11.33
2019-06-20T23:05:16.266Z,10.37
2019-06-20T23:07:43.704Z,11.55
2019-06-20T23:10:11.549Z,12.13
2019-06-20T23:12:39.297Z,12.73
2019-06-20T23:15:06.887Z,13.73
2019-06-20T23:17:34.312Z,14.20
2019-06-20T23:20:01.893Z,14.57
2019-06-20T23:22:29.371Z,13.62
2019-06-20T23:24:56.840Z,13.03
2019-06-20T23:27:24.292Z,12.90
2019-06-20T23:29:51.800Z,13.75
2019-06-20T23:32:19.291Z,12.77
2019-06-20T23:34:46.955Z,13.47
2019-06-20T23:37:14.405Z,12.60
2019-06-20T23:39:41.917Z,13.40
2019-06-20T23:42:09.398Z,14.03
2019-06-20T23:44:36.915Z,16.17
2019-06-20T23:47:04.383Z,16.70
2019-06-20T23:49:32.852Z,15.40
2019-06-20T23:52:02.229Z,14.83
2019-06-20T23:54:29.717Z,15.17
2019-06-20T23:56:57.191Z,16.07
2019-06-20T23:59:24.651Z,15.73
